createdAt,value
2023-01-11T00:00:44.807Z,6.65
2023-01-11T00:03:12.769Z,6.61
2023-01-11T00:05:41.421Z,6.88
2023-01-11T00:08:09.328Z,6.85
2023-01-11T00:10:37.131Z,7.20
2023-01-11T00:13:04.908Z,7.24
2023-01-11T00:15:32.443Z,7.37
2023-01-11T00:18:00.148Z,7.07
2023-01-11T00:20:27.970Z,7.17
2023-01-11T00:22:55.340Z,7.35
2023-01-11T00:25:23.081Z,7.00
2023-01-11T00:27:50.715Z,7.46
2023-01-11T00:30:18.632Z,7.50
2023-01-11T00:32:46.320Z,7.23
2023-01-11T00:35:13.729Z,7.34
2023-01-11T00:37:41.207Z,7.65
2023-01-11T00:40:09.289Z,7.64
2023-01-11T00:42:55.353Z,6.99
2023-01-11T00:45:42.008Z,7.00
2023-01-11T00:48:10.814Z,7.16
2023-01-11T00:50:40.199Z,7.83
2023-01-11T00:53:08.651Z,7.75
2023-01-11T00:55:36.584Z,7.53
2023-01-11T00:58:04.714Z,6.93
2023-01-11T01:00:32.179Z,7.71
2023-01-11T01:02:59.729Z,8.09
2023-01-11T01:05:27.610Z,7.25
2023-01-11T01:07:55.000Z,7.84
2023-01-11T01:10:22.361Z,8.25
2023-01-11T01:13:08.279Z,8.43
2023-01-11T01:15:36.173Z,8.33
2023-01-11T01:18:03.963Z,7.95
2023-01-11T01:20:31.380Z,7.19
2023-01-11T01:22:58.771Z,7.40
2023-01-11T01:25:26.443Z,6.82
2023-01-11T01:27:53.823Z,6.59
2023-01-11T01:30:21.214Z,6.49
2023-01-11T01:32:48.929Z,6.52
2023-01-11T01:35:16.288Z,6.04
2023-01-11T01:37:44.748Z,6.01
2023-01-11T01:40:13.071Z,6.52
2023-01-11T01:42:40.450Z,6.14
2023-01-11T01:45:18.377Z,6.33
2023-01-11T01:47:48.286Z,6.45
2023-01-11T01:50:27.923Z,6.16
2023-01-11T01:52:59.801Z,6.22
2023-01-11T01:55:31.796Z,6.40
2023-01-11T01:58:00.709Z,6.40
2023-01-11T02:00:28.117Z,6.14
2023-01-11T02:02:57.626Z,6.12
2023-01-11T02:05:25.579Z,5.67
2023-01-11T02:07:56.199Z,5.74
2023-01-11T02:10:23.649Z,5.97
2023-01-11T02:13:02.800Z,5.70
2023-01-11T02:15:30.544Z,6.49
2023-01-11T02:17:58.384Z,6.65
2023-01-11T02:20:53.308Z,6.94
2023-01-11T02:23:39.223Z,6.43
2023-01-11T02:26:27.798Z,7.02
2023-01-11T02:29:22.853Z,6.78
2023-01-11T02:31:59.189Z,6.87
2023-01-11T02:34:35.504Z,6.72
2023-01-11T02:37:12.078Z,7.40
2023-01-11T02:40:07.246Z,7.09
2023-01-11T02:43:19.991Z,7.06
2023-01-11T02:46:06.245Z,6.79
2023-01-11T02:49:27.755Z,7.15
2023-01-11T02:52:01.897Z,6.82
2023-01-11T02:54:29.870Z,6.57
2023-01-11T02:56:59.168Z,6.50
2023-01-11T02:59:32.619Z,5.32
2023-01-11T03:02:00.587Z,4.68
2023-01-11T03:04:37.239Z,5.65
2023-01-11T03:07:14.253Z,5.74
2023-01-11T03:09:59.865Z,4.97
2023-01-11T03:13:03.457Z,5.88
2023-01-11T03:16:01.465Z,4.42
2023-01-11T03:18:49.193Z,5.87
2023-01-11T03:21:58.311Z,5.65
2023-01-11T03:24:31.297Z,6.14
2023-01-11T03:27:04.807Z,6.74
2023-01-11T03:29:37.589Z,6.32
2023-01-11T03:32:11.118Z,6.13
2023-01-11T03:34:52.927Z,6.15
2023-01-11T03:37:28.681Z,5.60
2023-01-11T03:40:05.648Z,5.37
2023-01-11T03:42:33.959Z,5.74
2023-01-11T03:45:03.198Z,5.95
2023-01-11T03:47:32.949Z,5.79
2023-01-11T03:50:05.339Z,6.48
2023-01-11T03:52:38.398Z,6.20
2023-01-11T03:55:08.245Z,6.34
2023-01-11T03:57:43.238Z,6.61
2023-01-11T04:00:11.707Z,4.69
2023-01-11T04:02:40.614Z,4.75
2023-01-11T04:05:10.058Z,5.79
2023-01-11T04:07:37.558Z,4.45
2023-01-11T04:10:05.883Z,4.07
2023-01-11T04:12:33.301Z,4.09
2023-01-11T04:15:03.139Z,3.97
2023-01-11T04:17:32.379Z,4.66
2023-01-11T04:19:59.752Z,4.74
2023-01-11T04:22:27.106Z,4.84
2023-01-11T04:24:54.820Z,3.49
2023-01-11T04:27:22.153Z,3.67
2023-01-11T04:29:49.507Z,3.68
2023-01-11T04:32:17.203Z,4.11
2023-01-11T04:34:44.552Z,5.02
2023-01-11T04:37:12.103Z,4.45
2023-01-11T04:39:39.756Z,6.55
2023-01-11T04:42:19.091Z,5.92
2023-01-11T04:44:48.926Z,4.03
2023-01-11T04:47:17.486Z,4.07
2023-01-11T04:49:45.532Z,4.02
2023-01-11T04:52:15.156Z,3.64
2023-01-11T04:54:43.915Z,3.97
2023-01-11T04:57:13.390Z,3.76
2023-01-11T04:59:41.156Z,3.31
2023-01-11T05:02:08.679Z,3.52
2023-01-11T05:04:36.098Z,3.82
2023-01-11T05:07:03.825Z,4.31
2023-01-11T05:09:31.555Z,3.89
2023-01-11T05:11:58.948Z,5.27
2023-01-11T05:14:26.610Z,4.44
2023-01-11T05:16:54.077Z,4.72
2023-01-11T05:19:21.559Z,3.62
2023-01-11T05:21:49.289Z,4.34
2023-01-11T05:24:17.187Z,4.13
2023-01-11T05:26:45.123Z,4.50
2023-01-11T05:29:16.429Z,5.38
2023-01-11T05:31:43.975Z,4.39
2023-01-11T05:34:13.525Z,5.09
2023-01-11T05:36:41.615Z,4.68
2023-01-11T05:39:09.379Z,5.79
2023-01-11T05:41:36.799Z,4.48
2023-01-11T05:44:23.610Z,3.83
2023-01-11T05:46:51.008Z,5.04
2023-01-11T05:49:18.766Z,4.32
2023-01-11T05:51:46.149Z,4.72
2023-01-11T05:54:14.748Z,3.84
2023-01-11T05:56:43.028Z,4.39
2023-01-11T05:59:10.660Z,3.96
2023-01-11T06:01:38.385Z,4.03
2023-01-11T06:04:06.481Z,4.02
2023-01-11T06:06:34.159Z,3.81
2023-01-11T06:09:01.614Z,3.29
2023-01-11T06:11:29.425Z,3.02
2023-01-11T06:13:56.800Z,3.30
2023-01-11T06:16:24.366Z,3.28
2023-01-11T06:18:53.193Z,3.02
2023-01-11T06:21:20.777Z,3.54
2023-01-11T06:23:50.866Z,3.97
2023-01-11T06:26:21.249Z,4.88
2023-01-11T06:28:48.805Z,3.79
2023-01-11T06:31:17.900Z,3.71
2023-01-11T06:33:48.119Z,3.59
2023-01-11T06:36:16.231Z,4.15
2023-01-11T06:38:44.494Z,4.03
2023-01-11T06:41:13.246Z,3.38
2023-01-11T06:43:42.155Z,3.18
2023-01-11T06:46:14.282Z,3.18
2023-01-11T06:48:43.059Z,3.82
2023-01-11T06:51:13.601Z,6.06
2023-01-11T06:53:42.013Z,5.08
2023-01-11T06:56:13.628Z,5.50
2023-01-11T06:58:41.330Z,5.16
2023-01-11T07:01:09.000Z,4.72
2023-01-11T07:03:39.007Z,5.15
2023-01-11T07:06:06.605Z,5.11
2023-01-11T07:08:34.049Z,5.18
2023-01-11T07:11:01.843Z,4.59
2023-01-11T07:13:29.298Z,5.64
2023-01-11T07:15:58.009Z,3.90
2023-01-11T07:18:25.819Z,3.56
2023-01-11T07:20:53.215Z,5.24
2023-01-11T07:23:20.687Z,5.65
2023-01-11T07:25:49.688Z,6.64
2023-01-11T07:28:17.119Z,5.10
2023-01-11T07:30:57.302Z,6.82
2023-01-11T07:33:27.170Z,6.95
2023-01-11T07:35:55.194Z,6.52
2023-01-11T07:38:23.073Z,4.71
2023-01-11T07:40:50.783Z,5.92
2023-01-11T07:43:19.984Z,7.01
2023-01-11T07:45:51.565Z,7.15
2023-01-11T07:48:24.871Z,5.17
2023-01-11T07:50:53.200Z,4.89
2023-01-11T07:53:21.223Z,5.06
2023-01-11T07:55:48.660Z,6.69
2023-01-11T07:58:16.254Z,6.62
2023-01-11T08:00:46.005Z,5.52
2023-01-11T08:03:13.926Z,5.72
2023-01-11T08:05:41.423Z,7.31
2023-01-11T08:08:08.850Z,5.87
2023-01-11T08:10:36.531Z,5.28
2023-01-11T08:13:22.603Z,5.90
2023-01-11T08:15:50.393Z,6.96
2023-01-11T08:18:18.029Z,5.65
2023-01-11T08:20:45.913Z,5.76
2023-01-11T08:23:13.790Z,5.79
2023-01-11T08:25:41.230Z,4.96
2023-01-11T08:28:09.009Z,6.02
2023-01-11T08:30:37.432Z,4.66
2023-01-11T08:33:05.804Z,4.30
2023-01-11T08:35:38.529Z,5.53
2023-01-11T08:38:06.996Z,7.32
2023-01-11T08:40:34.482Z,5.46
2023-01-11T08:43:02.017Z,5.15
2023-01-11T08:45:29.681Z,6.80
2023-01-11T08:47:59.258Z,5.82
2023-01-11T08:50:26.771Z,7.38
2023-01-11T08:52:54.559Z,6.46
2023-01-11T08:55:23.334Z,6.18
2023-01-11T08:57:50.739Z,5.22
2023-01-11T09:00:19.272Z,6.88
2023-01-11T09:02:46.765Z,5.87
2023-01-11T09:05:16.255Z,6.28
2023-01-11T09:07:46.240Z,7.10
2023-01-11T09:10:13.724Z,7.54
2023-01-11T09:12:41.115Z,7.13
2023-01-11T09:15:09.722Z,7.24
2023-01-11T09:17:37.324Z,7.75
2023-01-11T09:20:05.599Z,7.53
2023-01-11T09:22:34.144Z,6.39
2023-01-11T09:25:01.664Z,7.70
2023-01-11T09:27:29.932Z,7.45
2023-01-11T09:29:57.701Z,7.87
2023-01-11T09:32:25.272Z,7.31
2023-01-11T09:34:57.303Z,7.50
2023-01-11T09:37:25.174Z,8.06
2023-01-11T09:39:52.746Z,7.56
2023-01-11T09:42:35.003Z,7.24
2023-01-11T09:45:11.116Z,7.90
2023-01-11T09:48:04.439Z,7.22
2023-01-11T09:50:40.014Z,6.44
2023-01-11T09:53:13.907Z,7.96
2023-01-11T09:55:46.850Z,9.15
2023-01-11T09:58:33.027Z,7.13
2023-01-11T10:01:21.983Z,8.26
2023-01-11T10:04:20.566Z,8.61
2023-01-11T10:07:01.042Z,8.87
2023-01-11T10:18:32.543Z,6.53
2023-01-11T10:19:04.260Z,6.74
2023-01-11T10:21:35.385Z,8.11
2023-01-11T10:24:07.495Z,7.36
2023-01-11T10:26:39.968Z,7.31
2023-01-11T10:29:16.904Z,7.62
2023-01-11T10:32:02.694Z,7.96
2023-01-11T10:34:53.367Z,9.05
2023-01-11T10:37:24.077Z,8.74
2023-01-11T10:40:23.474Z,7.56
2023-01-11T10:42:57.238Z,7.52
2023-01-11T10:45:46.358Z,9.98
2023-01-11T10:48:23.032Z,8.48
2023-01-11T10:51:06.000Z,9.22
2023-01-11T10:53:42.391Z,9.29
2023-01-11T10:56:16.037Z,11.13
2023-01-11T10:58:49.695Z,10.77
2023-01-11T11:01:38.540Z,10.57
2023-01-11T11:04:23.584Z,10.36
2023-01-11T11:07:14.200Z,9.21
2023-01-11T11:09:53.355Z,11.48
2023-01-11T11:12:25.623Z,10.79
2023-01-11T11:15:27.629Z,10.10
2023-01-11T11:17:55.233Z,9.79
2023-01-11T11:20:25.449Z,10.47
2023-01-11T11:22:55.024Z,11.32
2023-01-11T11:25:33.712Z,9.36
2023-01-11T11:28:04.743Z,10.70
2023-01-11T11:30:38.225Z,11.46
2023-01-11T11:33:19.348Z,9.76
2023-01-11T11:35:54.842Z,9.82
2023-01-11T11:38:30.071Z,11.96
2023-01-11T11:41:10.151Z,11.70
2023-01-11T11:43:42.191Z,11.52
2023-01-11T11:46:19.439Z,11.79
2023-01-11T11:49:12.653Z,11.67
2023-01-11T11:51:42.763Z,11.68
2023-01-11T11:54:30.012Z,10.63
2023-01-11T11:57:00.207Z,11.60
2023-01-11T11:59:30.201Z,10.11
2023-01-11T12:02:01.160Z,9.74
2023-01-11T12:04:33.249Z,12.07
2023-01-11T12:07:08.557Z,10.31
2023-01-11T12:09:36.603Z,10.03
2023-01-11T12:12:04.465Z,10.06
2023-01-11T12:14:35.206Z,12.06
2023-01-11T12:17:25.228Z,11.08
2023-01-11T12:19:52.671Z,10.98
2023-01-11T12:22:28.046Z,11.94
2023-01-11T12:25:13.722Z,13.30
2023-01-11T12:28:06.801Z,11.77
2023-01-11T12:30:46.471Z,10.64
2023-01-11T12:33:29.184Z,11.65
2023-01-11T12:36:22.856Z,13.28
2023-01-11T12:39:07.683Z,12.04
2023-01-11T12:41:44.330Z,13.10
2023-01-11T12:44:54.852Z,11.59
2023-01-11T12:47:31.683Z,12.87
2023-01-11T12:50:11.335Z,14.72
2023-01-11T12:52:44.738Z,13.87
2023-01-11T12:55:27.376Z,11.83
2023-01-11T12:58:36.133Z,10.69
2023-01-11T13:01:22.249Z,10.92
2023-01-11T13:04:23.973Z,11.54
2023-01-11T13:07:22.935Z,10.88
2023-01-11T13:10:05.694Z,11.08
2023-01-11T13:12:38.144Z,11.60
2023-01-11T13:15:27.167Z,12.95
2023-01-11T13:18:18.307Z,12.41
2023-01-11T13:21:02.471Z,13.45
2023-01-11T13:23:54.721Z,13.66
2023-01-11T13:26:31.235Z,13.61
2023-01-11T13:29:18.664Z,13.25
2023-01-11T13:31:47.508Z,14.11
2023-01-11T13:35:09.408Z,11.87
2023-01-11T13:37:55.011Z,12.73
2023-01-11T13:40:29.599Z,11.04
2023-01-11T13:43:04.074Z,13.09
2023-01-11T13:45:44.556Z,13.93
2023-01-11T13:48:26.014Z,13.48
2023-01-11T13:51:02.932Z,12.35
2023-01-11T13:53:47.296Z,13.37
2023-01-11T13:56:40.939Z,13.65
2023-01-11T13:59:31.517Z,12.59
2023-01-11T14:02:38.532Z,12.81
2023-01-11T14:05:18.975Z,12.04
2023-01-11T14:07:46.389Z,13.99
2023-01-11T14:10:23.748Z,11.00
2023-01-11T14:13:02.834Z,10.27
2023-01-11T14:16:09.049Z,10.30
2023-01-11T14:18:46.689Z,12.29
2023-01-11T14:21:22.654Z,11.77
2023-01-11T14:23:52.170Z,11.51
2023-01-11T14:26:28.999Z,12.42
2023-01-11T14:29:29.167Z,12.59
2023-01-11T14:32:21.512Z,13.61
2023-01-11T14:34:48.838Z,13.81
2023-01-11T14:37:16.490Z,13.09
2023-01-11T14:39:55.811Z,13.01
2023-01-11T14:43:01.768Z,13.06
2023-01-11T14:46:06.755Z,11.93
2023-01-11T14:49:03.119Z,11.13
2023-01-11T14:51:55.842Z,10.47
2023-01-11T14:54:40.700Z,10.84
2023-01-11T14:57:38.174Z,12.10
2023-01-11T15:00:26.113Z,11.68
2023-01-11T15:02:59.715Z,11.71
2023-01-11T15:05:31.026Z,11.31
2023-01-11T15:08:23.750Z,11.38
2023-01-11T15:11:06.200Z,12.61
2023-01-11T15:13:44.418Z,9.91
2023-01-11T15:16:41.036Z,12.51
2023-01-11T15:19:11.910Z,10.48
2023-01-11T15:21:47.917Z,10.43
2023-01-11T15:24:30.546Z,9.60
2023-01-11T15:27:00.436Z,9.54
2023-01-11T15:29:30.915Z,9.94
2023-01-11T15:32:06.883Z,9.48
2023-01-11T15:34:34.293Z,9.18
2023-01-11T15:37:06.519Z,9.64
2023-01-11T15:39:36.674Z,9.20
2023-01-11T15:42:17.689Z,10.02
2023-01-11T15:45:01.937Z,9.09
2023-01-11T15:47:54.628Z,9.45
2023-01-11T15:50:40.472Z,9.55
2023-01-11T15:53:36.269Z,9.58
2023-01-11T15:56:37.642Z,10.90
2023-01-11T15:59:17.927Z,10.89
2023-01-11T16:02:07.209Z,9.75
2023-01-11T16:05:06.020Z,9.31
2023-01-11T16:07:52.017Z,9.55
2023-01-11T16:10:27.785Z,8.88
2023-01-11T16:13:03.922Z,7.86
2023-01-11T16:15:37.589Z,7.68
2023-01-11T16:18:16.980Z,7.90
2023-01-11T16:20:56.177Z,9.05
2023-01-11T16:23:24.095Z,9.27
2023-01-11T16:25:56.220Z,9.27
2023-01-11T16:28:25.055Z,9.04
2023-01-11T16:30:56.188Z,8.55
2023-01-11T16:33:26.809Z,8.72
2023-01-11T16:36:13.320Z,8.68
2023-01-11T16:39:03.435Z,9.06
2023-01-11T16:41:43.789Z,9.59
2023-01-11T16:44:49.967Z,8.84
2023-01-11T16:47:19.330Z,7.82
2023-01-11T16:49:49.397Z,7.14
2023-01-11T16:52:28.660Z,7.55
2023-01-11T16:54:57.367Z,7.66
2023-01-11T16:57:35.893Z,6.43
2023-01-11T17:00:22.399Z,6.26
2023-01-11T17:03:21.669Z,5.88
2023-01-11T17:06:02.704Z,6.27
2023-01-11T17:08:35.139Z,6.81
2023-01-11T17:11:46.794Z,6.84
2023-01-11T17:14:18.183Z,7.17
2023-01-11T17:16:48.751Z,8.15
2023-01-11T17:19:22.134Z,7.94
2023-01-11T17:21:52.704Z,8.44
2023-01-11T17:24:24.881Z,7.87
2023-01-11T17:26:58.887Z,7.80
2023-01-11T17:29:34.074Z,7.63
2023-01-11T17:32:04.762Z,7.94
2023-01-11T17:34:35.031Z,7.45
2023-01-11T17:37:10.481Z,6.88
2023-01-11T17:39:38.526Z,7.33
2023-01-11T17:42:26.405Z,7.09
2023-01-11T17:45:13.540Z,5.72
2023-01-11T17:48:12.612Z,6.12
2023-01-11T17:50:46.933Z,6.29
2023-01-11T17:53:22.214Z,6.76
2023-01-11T17:55:54.848Z,7.75
2023-01-11T17:58:26.400Z,6.13
2023-01-11T18:01:15.066Z,5.25
2023-01-11T18:03:53.499Z,5.60
2023-01-11T18:06:29.600Z,5.37
2023-01-11T18:08:58.262Z,5.71
2023-01-11T18:11:37.271Z,5.93
2023-01-11T18:14:08.134Z,6.22
2023-01-11T18:16:35.596Z,5.62
2023-01-11T18:19:23.439Z,5.52
2023-01-11T18:21:53.328Z,4.71
2023-01-11T18:24:27.512Z,4.85
2023-01-11T18:27:15.668Z,4.73
2023-01-11T18:29:43.203Z,5.48
2023-01-11T18:32:12.375Z,5.42
2023-01-11T18:34:40.007Z,5.59
2023-01-11T18:37:10.987Z,5.46
2023-01-11T18:39:40.518Z,5.49
2023-01-11T18:42:15.072Z,5.13
2023-01-11T18:44:47.046Z,5.50
2023-01-11T18:47:17.228Z,6.05
2023-01-11T18:49:45.712Z,6.25
2023-01-11T18:52:13.946Z,6.45
2023-01-11T18:54:42.433Z,6.53
2023-01-11T18:57:11.602Z,5.89
2023-01-11T18:59:39.716Z,4.53
2023-01-11T19:04:54.675Z,5.15
2023-01-11T19:07:24.355Z,7.54
2023-01-11T19:09:55.236Z,5.48
2023-01-11T19:12:23.931Z,4.62
2023-01-11T19:14:51.822Z,7.35
2023-01-11T19:17:19.943Z,6.68
2023-01-11T19:19:47.667Z,4.91
2023-01-11T19:22:15.694Z,4.18
2023-01-11T19:24:43.692Z,4.37
2023-01-11T19:27:13.710Z,4.32
2023-01-11T19:29:42.246Z,4.25
2023-01-11T19:32:10.103Z,4.47
2023-01-11T19:34:39.927Z,3.77
2023-01-11T19:37:16.204Z,4.04
2023-01-11T19:39:44.317Z,4.32
2023-01-11T19:42:12.830Z,3.96
2023-01-11T19:44:41.347Z,4.80
2023-01-11T19:47:13.183Z,4.59
2023-01-11T19:49:43.027Z,5.51
2023-01-11T19:52:19.400Z,4.71
2023-01-11T19:54:49.384Z,4.64
2023-01-11T19:57:20.954Z,5.14
2023-01-11T19:59:50.246Z,5.08
2023-01-11T20:02:20.259Z,5.09
2023-01-11T20:04:50.293Z,4.06
2023-01-11T20:07:20.742Z,4.07
2023-01-11T20:09:49.082Z,3.67
2023-01-11T20:12:16.985Z,3.91
2023-01-11T20:14:46.816Z,3.69
2023-01-11T20:17:19.321Z,4.25
2023-01-11T20:19:55.593Z,4.11
2023-01-11T20:22:24.491Z,4.50
2023-01-11T20:24:56.067Z,3.68
2023-01-11T20:27:24.863Z,3.83
2023-01-11T20:29:53.877Z,3.60
2023-01-11T20:32:40.524Z,3.61
2023-01-11T20:35:10.609Z,3.94
2023-01-11T20:37:38.523Z,3.59
2023-01-11T20:40:08.929Z,3.16
2023-01-11T20:42:42.486Z,3.44
2023-01-11T20:45:10.910Z,3.89
2023-01-11T20:47:38.896Z,4.40
2023-01-11T20:50:07.253Z,5.02
2023-01-11T20:52:38.536Z,4.72
2023-01-11T20:55:08.376Z,4.68
2023-01-11T20:57:36.034Z,4.42
2023-01-11T21:00:04.528Z,5.31
2023-01-11T21:02:32.527Z,5.16
2023-01-11T21:05:00.335Z,3.43
2023-01-11T21:07:28.226Z,3.94
2023-01-11T21:09:56.496Z,3.86
2023-01-11T21:12:26.104Z,3.44
2023-01-11T21:14:53.772Z,4.29
2023-01-11T21:17:21.795Z,4.74
2023-01-11T21:19:50.563Z,5.31
2023-01-11T21:22:18.351Z,5.28
2023-01-11T21:24:48.382Z,5.12
2023-01-11T21:27:15.892Z,4.60
2023-01-11T21:29:43.390Z,7.45
2023-01-11T21:32:11.103Z,7.03
2023-01-11T21:34:38.562Z,6.40
2023-01-11T21:37:05.997Z,5.64
2023-01-11T21:39:33.784Z,4.92
2023-01-11T21:42:03.564Z,3.90
2023-01-11T21:44:33.663Z,3.99
2023-01-11T21:47:03.446Z,3.52
2023-01-11T21:49:31.716Z,3.12
2023-01-11T21:51:59.193Z,4.03
2023-01-11T21:54:27.017Z,3.26
2023-01-11T21:56:54.451Z,2.91
2023-01-11T21:59:22.433Z,3.38
2023-01-11T22:01:50.324Z,3.23
2023-01-11T22:04:19.894Z,3.07
2023-01-11T22:06:51.308Z,3.58
2023-01-11T22:09:19.952Z,3.25
2023-01-11T22:11:47.521Z,2.51
2023-01-11T22:14:14.957Z,3.65
2023-01-11T22:16:42.932Z,4.24
2023-01-11T22:19:10.463Z,3.30
2023-01-11T22:21:38.221Z,2.89
2023-01-11T22:24:08.411Z,2.56
2023-01-11T22:26:38.798Z,2.59
2023-01-11T22:29:17.264Z,2.40
2023-01-11T22:31:51.449Z,2.41
2023-01-11T22:34:19.838Z,2.43
2023-01-11T22:36:47.371Z,2.65
2023-01-11T22:39:16.167Z,2.86
2023-01-11T22:41:45.866Z,3.34
2023-01-11T22:44:13.864Z,2.83
2023-01-11T22:46:41.791Z,2.87
2023-01-11T22:49:10.472Z,3.20
2023-01-11T22:51:37.981Z,3.00
2023-01-11T22:54:05.430Z,2.56
2023-01-11T22:56:33.428Z,2.84
2023-01-11T22:59:01.047Z,2.79
2023-01-11T23:01:31.057Z,3.00
2023-01-11T23:03:59.191Z,3.01
2023-01-11T23:06:28.809Z,3.05
2023-01-11T23:08:57.786Z,2.92
2023-01-11T23:11:46.563Z,3.05
2023-01-11T23:14:16.170Z,2.98
2023-01-11T23:16:45.070Z,3.10
2023-01-11T23:19:14.437Z,3.21
2023-01-11T23:21:43.456Z,3.47
2023-01-11T23:24:12.366Z,3.02
2023-01-11T23:26:40.228Z,2.98
2023-01-11T23:29:07.760Z,3.14
2023-01-11T23:31:35.768Z,3.47
2023-01-11T23:34:06.914Z,3.45
2023-01-11T23:36:36.951Z,3.29
2023-01-11T23:39:05.904Z,3.85
2023-01-11T23:41:52.041Z,4.98
2023-01-11T23:44:19.838Z,4.41
2023-01-11T23:47:05.719Z,3.15
2023-01-11T23:49:33.781Z,3.31
2023-01-11T23:52:01.447Z,3.03
2023-01-11T23:54:32.118Z,4.10
2023-01-11T23:57:00.650Z,3.54
2023-01-11T23:59:28.362Z,3.34
